Time;durP1;ratioP1;P1;durP2;ratioP2;P2;SDS_P1;SDS_P2;PMS_P1;PMS_P2;Temp;Humidity;BMP_temperature;BMP_pressure;BME280_temperature;BME280_humidity;BME280_pressure;Samples;Min_cycle;Max_cycle;Signal;HPM_P1;HPM_P2
2022/08/25 13:29:52;;;;;;;6.07;2.17;;;34.70;62.90;;;;;;6243229;22;1289220;-84
2022/08/25 13:32:29;;;;;;;2.50;2.00;;;35.10;61.90;;;;;;6237536;22;20026;-78
2022/08/25 13:38:13;;;;;;;4.07;2.50;;;35.50;60.10;;;;;;6297494;22;20207;-88
2022/08/25 13:40:39;;;;;;;7.32;2.42;;;35.50;59.70;;;;;;6257793;22;20011;-87
2022/08/25 13:43:08;;;;;;;4.28;2.40;;;35.30;59.10;;;;;;6255931;22;20340;-86
2022/08/25 13:45:40;;;;;;;4.07;2.33;;;35.00;58.80;;;;;;6281539;22;20046;-85
2022/08/25 13:48:06;;;;;;;3.40;2.53;;;34.70;59.00;;;;;;6256154;22;20011;-86
2022/08/25 13:50:38;;;;;;;3.28;2.25;;;34.30;58.90;;;;;;6231392;22;20013;-85
2022/08/25 13:53:20;;;;;;;2.92;2.10;;;34.10;58.30;;;;;;6257030;22;20011;-86
2022/08/25 13:55:54;;;;;;;4.50;2.38;;;33.80;58.80;;;;;;6256094;22;20015;-84
2022/08/25 13:58:32;;;;;;;3.95;2.30;;;33.60;59.60;;;;;;6253796;22;20046;-83
2022/08/25 14:01:12;;;;;;;4.70;2.60;;;33.40;59.20;;;;;;6257361;22;20011;-83
2022/08/25 14:03:44;;;;;;;4.78;2.75;;;33.20;59.50;;;;;;6282775;22;20164;-85
2022/08/25 14:06:18;;;;;;;4.50;2.67;;;32.90;60.60;;;;;;6257160;22;20007;-83
2022/08/25 14:08:54;;;;;;;3.45;2.30;;;32.70;60.70;;;;;;6282731;22;20014;-84
2022/08/25 14:11:46;;;;;;;3.65;2.40;;;32.50;60.80;;;;;;6257020;22;20007;-89
2022/08/25 14:14:29;;;;;;;4.68;2.53;;;32.40;60.80;;;;;;6255783;22;20344;-84
2022/08/25 14:17:00;;;;;;;4.20;2.40;;;32.30;60.60;;;;;;6256949;22;20098;-85
2022/08/25 14:19:26;;;;;;;3.30;2.58;;;32.10;61.20;;;;;;6282926;22;20034;-85
2022/08/25 14:21:53;;;;;;;5.90;2.30;;;32.10;60.80;;;;;;6257723;22;20068;-85
2022/08/25 14:24:21;;;;;;;4.72;2.45;;;32.00;60.80;;;;;;6281981;22;20015;-84
2022/08/25 14:26:47;;;;;;;6.05;2.50;;;32.00;60.80;;;;;;6283403;22;20003;-84
2022/08/25 14:29:14;;;;;;;2.80;2.05;;;31.90;60.50;;;;;;6205825;22;20082;-85
2022/08/25 14:31:43;;;;;;;5.88;2.70;;;31.80;60.30;;;;;;6231914;22;20014;-85
2022/08/25 14:34:17;;;;;;;4.90;2.67;;;31.70;60.70;;;;;;6256124;22;20012;-85
2022/08/25 14:36:43;;;;;;;2.97;2.40;;;31.60;61.50;;;;;;6277348;22;20024;-86
2022/08/25 14:39:10;;;;;;;4.32;2.40;;;31.50;61.60;;;;;;6277619;22;20073;-86
2022/08/25 14:41:39;;;;;;;5.40;2.40;;;31.50;61.80;;;;;;6251663;22;20077;-85
2022/08/25 14:44:07;;;;;;;6.75;2.47;;;31.50;61.50;;;;;;6252459;22;20326;-86
2022/08/25 14:46:36;;;;;;;7.82;2.53;;;31.50;61.20;;;;;;6251943;22;20026;-84
2022/08/25 14:49:05;;;;;;;8.30;2.83;;;31.40;61.50;;;;;;6267777;22;20023;-85
2022/08/25 14:51:32;;;;;;;8.90;2.53;;;31.40;61.50;;;;;;6297535;22;20012;-85
2022/08/25 14:54:06;;;;;;;6.55;2.70;;;31.30;61.80;;;;;;6269292;22;20027;-85
2022/08/25 14:56:32;;;;;;;4.18;2.42;;;31.30;62.70;;;;;;6251806;22;20031;-86
2022/08/25 14:58:59;;;;;;;3.47;2.45;;;31.20;62.70;;;;;;6226306;22;20058;-85
2022/08/25 15:01:26;;;;;;;4.65;2.35;;;31.20;62.70;;;;;;6227381;22;20445;-86
2022/08/25 15:03:56;;;;;;;6.75;2.75;;;31.20;63.20;;;;;;6278647;22;20012;-86
2022/08/25 15:06:22;;;;;;;4.07;2.70;;;31.20;61.60;;;;;;6253011;22;20007;-85
2022/08/25 15:11:32;;;;;;;3.50;2.60;;;31.10;62.30;;;;;;6278114;22;20026;-86
2022/08/25 15:14:02;;;;;;;6.75;2.78;;;31.00;62.20;;;;;;6227090;22;20034;-85
2022/08/25 15:16:33;;;;;;;4.47;2.60;;;30.90;62.70;;;;;;6252644;22;20015;-85
2022/08/25 15:19:00;;;;;;;7.13;2.50;;;31.00;63.00;;;;;;6253027;22;20012;-85
2022/08/25 15:21:26;;;;;;;5.10;2.75;;;30.90;62.90;;;;;;6251788;22;20015;-84
2022/08/25 15:23:52;;;;;;;5.35;2.47;;;30.90;62.20;;;;;;6249648;22;20025;-84
2022/08/25 15:26:18;;;;;;;3.67;2.70;;;31.00;61.90;;;;;;6252721;22;20434;-84
2022/08/25 15:28:47;;;;;;;3.53;2.42;;;31.00;62.10;;;;;;6251886;22;20074;-84
2022/08/25 15:31:18;;;;;;;5.53;2.60;;;30.90;61.60;;;;;;6252136;22;20441;-85
2022/08/25 15:33:44;;;;;;;3.63;2.50;;;30.90;61.90;;;;;;6253491;22;20016;-84
2022/08/25 15:36:13;;;;;;;4.72;2.40;;;30.90;62.10;;;;;;6228907;22;20018;-83
2022/08/25 15:38:44;;;;;;;6.18;2.53;;;30.90;62.30;;;;;;6251484;22;20103;-84
2022/08/25 15:41:11;;;;;;;2.83;2.30;;;30.90;62.50;;;;;;6228370;22;20095;-86
2022/08/25 15:43:37;;;;;;;4.30;2.83;;;30.90;62.80;;;;;;6252385;22;20011;-87
2022/08/25 15:46:05;;;;;;;3.85;2.63;;;30.80;62.60;;;;;;6251028;22;20015;-86
2022/08/25 15:48:32;;;;;;;5.00;2.55;;;30.80;62.30;;;;;;6250938;22;20145;-88
2022/08/25 15:50:59;;;;;;;5.25;3.25;;;30.80;62.30;;;;;;6251982;22;20508;-87
2022/08/25 15:53:27;;;;;;;4.53;2.50;;;30.80;62.50;;;;;;6250762;22;20476;-87
2022/08/25 15:55:53;;;;;;;8.57;3.40;;;30.80;62.10;;;;;;6249826;22;20069;-86
2022/08/25 15:58:19;;;;;;;4.55;2.88;;;30.80;62.60;;;;;;6251584;22;20337;-86
2022/08/25 16:00:46;;;;;;;8.73;3.30;;;30.70;62.90;;;;;;6225972;22;20016;-86
2022/08/25 16:03:12;;;;;;;6.18;3.28;;;30.70;63.70;;;;;;6277293;22;20069;-86
2022/08/25 16:05:39;;;;;;;7.25;2.88;;;30.70;64.00;;;;;;6226680;22;20054;-88
2022/08/25 16:08:05;;;;;;;6.20;2.67;;;30.70;63.30;;;;;;6250865;22;20019;-86
2022/08/25 16:10:36;;;;;;;5.82;2.40;;;30.70;62.90;;;;;;6278028;22;20011;-86
2022/08/25 16:13:03;;;;;;;5.68;2.53;;;30.70;62.90;;;;;;6228186;22;20030;-86
2022/08/25 16:15:29;;;;;;;3.05;2.42;;;30.70;62.30;;;;;;6254057;22;20016;-86
2022/08/25 16:17:57;;;;;;;4.95;2.38;;;30.60;62.10;;;;;;6254690;22;20514;-88
2022/08/25 16:20:23;;;;;;;4.97;2.75;;;30.60;62.00;;;;;;6226343;22;20416;-89
2022/08/25 16:22:49;;;;;;;4.35;2.55;;;30.60;62.10;;;;;;6254463;22;20016;-86
2022/08/25 16:25:15;;;;;;;4.70;2.55;;;30.60;62.10;;;;;;6202624;22;20024;-86
2022/08/25 16:27:40;;;;;;;6.95;2.78;;;30.60;62.00;;;;;;6254543;22;20039;-86
2022/08/25 16:30:09;;;;;;;3.17;2.72;;;30.50;62.40;;;;;;6279398;22;20012;-86
2022/08/25 16:32:35;;;;;;;5.80;2.78;;;30.50;62.50;;;;;;6252973;22;20441;-85
2022/08/25 16:35:01;;;;;;;5.38;2.92;;;30.50;63.00;;;;;;6253281;22;20091;-86
2022/08/25 16:37:27;;;;;;;8.18;3.05;;;30.50;63.30;;;;;;6227015;22;20026;-86
2022/08/25 16:39:54;;;;;;;6.30;2.80;;;30.50;63.40;;;;;;6252931;22;20365;-84
2022/08/25 16:42:19;;;;;;;5.32;2.80;;;30.50;63.70;;;;;;6253472;22;20076;-86
2022/08/25 16:44:46;;;;;;;9.07;3.33;;;30.50;63.80;;;;;;6278183;22;20621;-86
2022/08/25 16:47:13;;;;;;;3.22;2.67;;;30.70;64.00;;;;;;6252800;22;20047;-85
2022/08/25 16:49:39;;;;;;;6.70;3.20;;;30.80;63.50;;;;;;6227401;22;20034;-86
2022/08/25 16:55:11;;;;;;;9.23;3.15;;;30.90;63.60;;;;;;6253172;22;20012;-85
2022/08/25 16:57:47;;;;;;;6.00;3.05;;;31.00;63.70;;;;;;6277726;22;20015;-86
2022/08/25 17:00:16;;;;;;;4.30;2.72;;;31.00;63.80;;;;;;6277668;22;20033;-86
2022/08/25 17:02:41;;;;;;;7.25;3.00;;;31.00;63.90;;;;;;6252052;22;20067;-86
2022/08/25 17:05:10;;;;;;;7.40;3.03;;;30.90;63.50;;;;;;6202310;22;20337;-85
2022/08/25 17:07:36;;;;;;;6.50;3.00;;;30.90;63.60;;;;;;6227535;22;20007;-87
2022/08/25 17:10:04;;;;;;;8.88;2.90;;;30.70;63.10;;;;;;6227230;22;20035;-84
2022/08/25 17:12:30;;;;;;;6.00;2.70;;;30.60;63.10;;;;;;6251454;22;20012;-82
2022/08/25 17:14:56;;;;;;;7.13;3.13;;;30.50;63.00;;;;;;6225324;22;20073;-82
2022/08/25 17:17:21;;;;;;;6.80;2.55;;;30.40;63.20;;;;;;6252958;22;20016;-82
2022/08/25 17:19:47;;;;;;;4.03;2.80;;;30.30;63.50;;;;;;6252472;22;20011;-83
2022/08/25 17:22:14;;;;;;;4.75;2.70;;;30.30;63.90;;;;;;6227995;22;20019;-81
2022/08/25 17:24:44;;;;;;;6.40;2.78;;;30.20;64.30;;;;;;6227939;22;20016;-83
2022/08/25 17:27:10;;;;;;;6.55;3.50;;;30.10;64.50;;;;;;6252797;22;20065;-82
2022/08/25 17:29:36;;;;;;;5.28;3.78;;;30.00;65.40;;;;;;6277403;22;20008;-82
2022/08/25 17:32:03;;;;;;;10.13;3.25;;;30.00;66.40;;;;;;6276571;22;20023;-82
2022/08/25 17:34:29;;;;;;;5.95;3.08;;;29.90;66.30;;;;;;6276358;22;20064;-83
2022/08/25 17:36:56;;;;;;;5.63;3.10;;;29.80;67.00;;;;;;6225019;22;20094;-82
2022/08/25 17:39:23;;;;;;;5.10;3.22;;;29.70;68.10;;;;;;6276434;22;20027;-82
2022/08/25 17:41:50;;;;;;;7.63;3.40;;;29.70;69.30;;;;;;6274969;22;20019;-82
2022/08/25 17:44:16;;;;;;;9.20;3.30;;;29.60;70.00;;;;;;6249894;22;20091;-84
2022/08/25 17:46:42;;;;;;;6.47;3.38;;;29.50;70.40;;;;;;6225143;22;20012;-82
2022/08/25 17:49:08;;;;;;;6.90;3.53;;;29.50;70.80;;;;;;6275639;22;20030;-82
2022/08/25 17:51:37;;;;;;;4.32;3.63;;;29.30;71.10;;;;;;6250483;22;20012;-83
2022/08/25 17:54:03;;;;;;;6.65;3.67;;;29.30;71.40;;;;;;6225319;22;20045;-82
2022/08/25 17:56:29;;;;;;;6.07;3.90;;;29.20;71.60;;;;;;6276791;22;20011;-83
2022/08/25 17:58:55;;;;;;;8.63;4.00;;;29.10;72.40;;;;;;6276472;22;20043;-82
2022/08/25 18:01:25;;;;;;;6.03;3.97;;;29.00;73.20;;;;;;6225459;22;20016;-81
2022/08/25 18:03:51;;;;;;;6.15;4.40;;;29.00;73.60;;;;;;6250546;22;20441;-82
2022/08/25 18:06:19;;;;;;;6.10;4.60;;;28.90;73.90;;;;;;6224598;22;20047;-81
2022/08/25 18:08:45;;;;;;;6.32;4.95;;;28.80;74.40;;;;;;6224311;22;20038;-82
2022/08/25 18:11:11;;;;;;;7.82;4.70;;;28.70;74.70;;;;;;6250998;22;20015;-81
2022/08/25 18:13:37;;;;;;;5.80;3.90;;;28.60;74.80;;;;;;6251283;22;20011;-81
2022/08/25 18:16:03;;;;;;;5.45;3.67;;;28.50;74.90;;;;;;6227384;22;20084;-82
2022/08/25 18:18:29;;;;;;;10.32;4.40;;;28.40;75.10;;;;;;6226510;22;20016;-82
2022/08/25 18:20:55;;;;;;;6.90;4.18;;;28.30;75.40;;;;;;6225468;22;20314;-82
2022/08/25 18:23:21;;;;;;;7.35;3.95;;;28.30;75.80;;;;;;6249638;22;20053;-81
2022/08/25 18:25:48;;;;;;;7.03;4.22;;;28.20;76.00;;;;;;6250140;22;20007;-82
2022/08/25 18:28:14;;;;;;;13.68;5.57;;;28.10;76.30;;;;;;6226348;22;20019;-82
2022/08/25 18:30:40;;;;;;;10.80;5.75;;;28.00;76.80;;;;;;6226027;22;20345;-81
2022/08/25 18:33:06;;;;;;;8.20;4.63;;;27.90;77.00;;;;;;6225632;22;20046;-82
2022/08/25 18:35:32;;;;;;;7.22;4.25;;;27.80;77.30;;;;;;6201222;22;20098;-81
2022/08/25 18:40:42;;;;;;;7.82;5.43;;;27.70;78.30;;;;;;6254288;22;20441;-82
2022/08/25 18:43:13;;;;;;;7.75;5.88;;;27.60;79.00;;;;;;6224305;22;20015;-82
2022/08/25 18:45:42;;;;;;;9.50;7.03;;;27.60;79.40;;;;;;6250080;22;20022;-82
2022/08/25 18:48:09;;;;;;;7.78;5.70;;;27.50;80.00;;;;;;6251068;22;20043;-81
2022/08/25 18:50:37;;;;;;;6.38;4.32;;;27.40;79.80;;;;;;6250271;22;20007;-81
2022/08/25 18:53:04;;;;;;;7.32;5.30;;;27.40;79.90;;;;;;6252320;22;20069;-82
2022/08/25 18:55:30;;;;;;;8.23;5.20;;;27.30;80.30;;;;;;6276951;22;20471;-82
2022/08/25 18:57:56;;;;;;;8.40;4.93;;;27.20;80.50;;;;;;6227027;22;20043;-82
2022/08/25 19:00:26;;;;;;;7.60;4.28;;;27.20;80.70;;;;;;6226506;22;20050;-82
2022/08/25 19:02:54;;;;;;;5.40;4.13;;;27.10;81.10;;;;;;6251672;22;20023;-82
2022/08/25 19:05:22;;;;;;;6.13;4.78;;;27.10;81.60;;;;;;6250455;22;20047;-82
2022/08/25 19:07:50;;;;;;;7.57;5.30;;;27.00;81.90;;;;;;6250211;22;20012;-82
2022/08/25 19:10:18;;;;;;;9.10;5.95;;;27.00;82.20;;;;;;6276910;22;20019;-82
2022/08/25 19:12:44;;;;;;;6.72;5.43;;;26.90;82.40;;;;;;6251156;22;20090;-83
2022/08/25 19:15:11;;;;;;;5.72;5.00;;;26.80;82.40;;;;;;6251740;22;20022;-82
2022/08/25 19:17:37;;;;;;;6.40;4.28;;;26.80;82.90;;;;;;6251680;22;20012;-83
2022/08/25 19:20:04;;;;;;;13.02;6.05;;;26.70;83.50;;;;;;6250793;22;20086;-82
2022/08/25 19:22:30;;;;;;;12.73;4.78;;;26.60;83.60;;;;;;6224697;22;20015;-83
2022/08/25 19:24:56;;;;;;;7.35;4.05;;;26.20;83.70;;;;;;6250278;22;20026;-83
2022/08/25 19:27:22;;;;;;;14.25;4.43;;;26.50;84.30;;;;;;6225047;22;20333;-83
2022/08/25 19:29:48;;;;;;;7.50;4.05;;;26.40;84.50;;;;;;6225566;22;20094;-82
2022/08/25 19:32:14;;;;;;;8.90;4.07;;;26.40;84.90;;;;;;6249686;22;20061;-83
2022/08/25 19:34:44;;;;;;;7.95;3.90;;;26.30;85.10;;;;;;6250426;22;20015;-83
2022/08/25 19:37:13;;;;;;;10.90;4.10;;;26.20;85.70;;;;;;6249608;22;20023;-82
2022/08/25 19:39:42;;;;;;;9.13;4.03;;;26.20;86.70;;;;;;6250854;22;20016;-82
2022/08/25 19:42:08;;;;;;;6.70;4.22;;;26.20;86.30;;;;;;6249938;22;20069;-82
2022/08/25 19:44:34;;;;;;;5.10;4.00;;;26.10;86.40;;;;;;6250178;22;20016;-82
2022/08/25 19:47:01;;;;;;;8.80;4.25;;;26.00;86.50;;;;;;6251158;22;20133;-82
2022/08/25 19:49:33;;;;;;;7.20;4.32;;;26.00;87.20;;;;;;6251488;22;20085;-82
2022/08/25 19:52:01;;;;;;;9.43;4.65;;;25.90;87.60;;;;;;6278222;22;20094;-81
2022/08/25 19:54:39;;;;;;;8.20;5.00;;;25.90;87.70;;;;;;6252808;22;20459;-82
2022/08/25 19:57:08;;;;;;;8.93;4.65;;;25.80;88.10;;;;;;6278642;22;20020;-82
2022/08/25 19:59:36;;;;;;;8.00;4.53;;;25.80;88.20;;;;;;6252590;22;20015;-81
2022/08/25 20:02:04;;;;;;;8.10;4.80;;;25.80;88.50;;;;;;6252020;22;20113;-81
2022/08/25 20:04:30;;;;;;;8.23;4.60;;;25.70;88.40;;;;;;6227214;22;20067;-82
2022/08/25 20:06:56;;;;;;;6.80;4.68;;;25.60;88.40;;;;;;6251987;22;20018;-82
2022/08/25 20:09:24;;;;;;;9.30;4.53;;;25.60;88.70;;;;;;6202108;22;20015;-82
2022/08/25 20:11:51;;;;;;;9.73;4.57;;;25.60;88.80;;;;;;6253305;22;20019;-83
2022/08/25 20:14:17;;;;;;;8.15;5.13;;;25.50;89.10;;;;;;6252440;22;20012;-82
2022/08/25 20:16:43;;;;;;;5.63;4.53;;;25.50;89.50;;;;;;6252547;22;20015;-82
2022/08/25 20:19:09;;;;;;;8.45;4.70;;;25.40;89.90;;;;;;6278221;22;20034;-81
2022/08/25 20:21:39;;;;;;;10.10;4.80;;;25.40;90.00;;;;;;6252600;22;20055;-82
2022/08/25 20:26:50;;;;;;;8.23;4.97;;;25.30;90.20;;;;;;6262029;22;20126;-81
2022/08/25 20:29:16;;;;;;;14.18;5.18;;;25.20;90.30;;;;;;6282720;22;20515;-83
2022/08/25 20:31:46;;;;;;;9.73;5.40;;;25.20;90.60;;;;;;6255435;22;20095;-83
2022/08/25 20:34:13;;;;;;;11.43;5.28;;;25.10;91.00;;;;;;6275751;22;20047;-82
2022/08/25 20:36:39;;;;;;;7.45;5.47;;;25.10;91.30;;;;;;6231082;22;20085;-81
2022/08/25 20:39:05;;;;;;;7.47;5.45;;;25.00;91.40;;;;;;6282834;22;20444;-82
2022/08/25 20:41:32;;;;;;;8.60;5.60;;;24.90;91.40;;;;;;6231597;22;20018;-82
2022/08/25 20:43:57;;;;;;;8.52;5.15;;;24.90;91.60;;;;;;6230583;22;20016;-83
2022/08/25 20:46:23;;;;;;;9.60;5.60;;;24.80;91.40;;;;;;6231425;22;20459;-81
2022/08/25 20:48:49;;;;;;;8.50;6.18;;;24.80;91.50;;;;;;6257145;22;20069;-81
2022/08/25 20:51:14;;;;;;;7.68;6.13;;;24.80;91.80;;;;;;6205006;22;20043;-81
2022/08/25 20:53:41;;;;;;;9.40;7.03;;;24.70;91.50;;;;;;6231185;22;20015;-82
2022/08/25 20:56:15;;;;;;;11.23;7.03;;;24.70;91.50;;;;;;6255596;22;20023;-81
2022/08/25 20:58:42;;;;;;;9.55;7.57;;;24.60;91.50;;;;;;6255275;22;20015;-82
2022/08/25 21:01:08;;;;;;;14.65;11.38;;;24.40;91.70;;;;;;6257056;22;20337;-81
2022/08/25 21:03:34;;;;;;;14.82;11.70;;;24.40;91.80;;;;;;6229902;22;20448;-80
2022/08/25 21:06:05;;;;;;;21.85;19.70;;;24.40;92.20;;;;;;6229429;22;20013;-81
2022/08/25 21:08:31;;;;;;;25.17;22.67;;;24.40;92.40;;;;;;6255852;22;20065;-81
2022/08/25 21:10:57;;;;;;;30.75;27.65;;;24.40;92.60;;;;;;6256685;22;20011;-81
2022/08/25 21:13:23;;;;;;;32.40;29.27;;;24.40;93.00;;;;;;6229200;22;20003;-81
2022/08/25 21:15:48;;;;;;;42.13;37.83;;;24.30;93.40;;;;;;6255341;22;20026;-81
2022/08/25 21:18:14;;;;;;;45.30;40.78;;;24.30;94.00;;;;;;6229612;22;20014;-81
2022/08/25 21:20:40;;;;;;;48.33;42.45;;;24.20;94.70;;;;;;6255129;22;20019;-81
2022/08/25 21:23:06;;;;;;;52.05;46.78;;;24.20;95.20;;;;;;6229895;22;20094;-81
2022/08/25 21:25:39;;;;;;;53.30;47.60;;;24.10;95.90;;;;;;6230538;22;20041;-82
2022/08/25 21:28:05;;;;;;;58.38;52.35;;;24.10;97.20;;;;;;6254066;22;20015;-83
2022/08/25 21:30:31;;;;;;;53.75;48.25;;;24.00;98.50;;;;;;6229177;22;20037;-81
2022/08/25 21:32:58;;;;;;;59.10;52.97;;;23.90;99.20;;;;;;6254783;22;20019;-82
2022/08/25 21:35:25;;;;;;;55.80;49.72;;;23.90;99.90;;;;;;6255660;22;20075;-82
2022/08/25 21:37:52;;;;;;;62.45;55.70;;;23.80;99.90;;;;;;6254288;22;20402;-82
2022/08/25 21:40:18;;;;;;;59.20;53.03;;;23.70;99.90;;;;;;6255667;22;20094;-82
2022/08/25 21:42:44;;;;;;;56.50;50.80;;;23.70;99.90;;;;;;6230795;22;20049;-82
2022/08/25 21:45:11;;;;;;;60.67;54.33;;;23.60;99.90;;;;;;6256278;22;20007;-82
2022/08/25 21:47:41;;;;;;;60.15;53.97;;;23.60;99.90;;;;;;6280368;22;20011;-82
2022/08/25 21:50:08;;;;;;;62.38;55.55;;;23.60;99.90;;;;;;6231146;22;20011;-82
2022/08/25 21:52:34;;;;;;;63.30;56.75;;;23.50;99.90;;;;;;6230261;22;20018;-81
2022/08/25 21:55:01;;;;;;;58.38;52.28;;;23.50;99.90;;;;;;6254849;22;20011;-84
2022/08/25 21:57:27;;;;;;;61.30;54.83;;;23.50;99.90;;;;;;6228648;22;20015;-83
2022/08/25 21:59:53;;;;;;;61.15;54.75;;;23.50;99.90;;;;;;6305062;22;20038;-82
2022/08/25 22:02:20;;;;;;;65.03;58.38;;;23.40;99.90;;;;;;6229302;22;20024;-82
2022/08/25 22:04:50;;;;;;;67.55;60.35;;;23.40;99.90;;;;;;6280339;22;20019;-82
2022/08/25 22:07:16;;;;;;;64.57;58.13;;;23.30;99.90;;;;;;6254548;22;20018;-82
2022/08/25 22:09:42;;;;;;;61.83;55.47;;;23.20;99.90;;;;;;6254423;22;20206;-82
2022/08/25 22:12:08;;;;;;;62.22;55.83;;;23.10;99.90;;;;;;6254302;22;20007;-82
2022/08/25 22:14:34;;;;;;;57.75;51.60;;;23.10;99.90;;;;;;6229400;22;20090;-82
2022/08/25 22:17:00;;;;;;;60.25;53.63;;;23.00;99.90;;;;;;6255773;22;20011;-82
2022/08/25 22:19:26;;;;;;;61.63;55.42;;;23.00;99.90;;;;;;6280200;22;20098;-82
2022/08/25 22:21:53;;;;;;;63.55;56.47;;;23.00;99.90;;;;;;6228633;22;20383;-83
2022/08/25 22:24:19;;;;;;;62.40;56.17;;;23.00;99.90;;;;;;6253242;22;20022;-83
2022/08/25 22:26:45;;;;;;;62.78;56.15;;;22.90;99.90;;;;;;6256972;22;20376;-83
2022/08/25 22:29:14;;;;;;;58.60;52.83;;;22.90;99.90;;;;;;6255528;22;20018;-84
2022/08/25 22:31:40;;;;;;;59.47;53.17;;;22.80;99.90;;;;;;6230486;22;20011;-83
2022/08/25 22:34:06;;;;;;;60.15;53.78;;;22.80;99.90;;;;;;6229507;22;20381;-83
2022/08/25 22:36:35;;;;;;;63.47;56.92;;;22.80;99.90;;;;;;6230015;22;20441;-83
2022/08/25 22:39:03;;;;;;;58.42;52.65;;;22.70;99.90;;;;;;6282107;22;20444;-83
2022/08/25 22:41:30;;;;;;;59.38;53.00;;;22.70;99.90;;;;;;6256088;22;20077;-83
2022/08/25 22:43:57;;;;;;;65.50;58.03;;;22.70;99.90;;;;;;6231263;22;20011;-83
2022/08/25 22:46:25;;;;;;;60.55;54.45;;;22.70;99.90;;;;;;6281716;22;20019;-83
2022/08/25 22:48:51;;;;;;;65.15;58.20;;;22.60;99.90;;;;;;6254734;22;20014;-83
2022/08/25 22:51:22;;;;;;;61.47;54.95;;;22.60;99.90;;;;;;6254708;22;20011;-82
2022/08/25 22:53:48;;;;;;;63.72;57.05;;;22.50;99.90;;;;;;6255673;22;20019;-82
2022/08/25 22:56:16;;;;;;;61.45;55.25;;;22.50;99.90;;;;;;6280656;22;20015;-83
2022/08/25 22:58:42;;;;;;;59.30;53.13;;;22.40;99.90;;;;;;6255553;22;20018;-83
2022/08/25 23:01:17;;;;;;;60.38;54.22;;;22.40;99.90;;;;;;6256219;22;20069;-83
2022/08/25 23:03:44;;;;;;;57.50;51.65;;;22.40;99.90;;;;;;6256698;22;20026;-83
2022/08/25 23:06:15;;;;;;;56.83;50.97;;;22.40;99.90;;;;;;6256804;22;20011;-83
2022/08/25 23:08:42;;;;;;;58.60;52.22;;;22.40;99.90;;;;;;6307477;22;20039;-83
2022/08/25 23:11:10;;;;;;;60.40;54.17;;;22.30;99.90;;;;;;6255680;22;20104;-83
2022/08/25 23:13:37;;;;;;;59.67;53.45;;;22.30;99.90;;;;;;6254721;22;20057;-83
2022/08/25 23:16:03;;;;;;;56.90;51.03;;;22.30;99.90;;;;;;6254780;22;20011;-83
2022/08/25 23:18:29;;;;;;;54.30;48.88;;;22.20;99.90;;;;;;6281417;22;20441;-83
2022/08/25 23:23:40;;;;;;;59.53;53.28;;;22.20;99.90;;;;;;6283081;22;20034;-83
2022/08/25 23:26:06;;;;;;;56.38;50.58;;;22.20;99.90;;;;;;6231188;22;20050;-83
2022/08/25 23:28:31;;;;;;;54.10;48.53;;;22.10;99.90;;;;;;6256370;22;20019;-83
2022/08/25 23:30:57;;;;;;;50.80;45.40;;;22.10;99.90;;;;;;6230677;22;20086;-83
2022/08/25 23:33:23;;;;;;;53.85;48.20;;;22.00;99.90;;;;;;6230925;22;20363;-83
2022/08/25 23:35:57;;;;;;;52.97;47.60;;;22.00;99.90;;;;;;6230404;22;20043;-83
2022/08/25 23:38:23;;;;;;;52.03;46.35;;;22.00;99.90;;;;;;6255200;22;20011;-83
2022/08/25 23:40:49;;;;;;;51.38;46.03;;;21.90;99.90;;;;;;6282137;22;20440;-83
2022/08/25 23:43:14;;;;;;;48.75;43.55;;;21.90;99.90;;;;;;6230667;22;20502;-83
2022/08/25 23:45:40;;;;;;;51.83;45.83;;;21.90;99.90;;;;;;6228271;22;20015;-82
2022/08/25 23:48:07;;;;;;;49.03;43.67;;;21.90;99.90;;;;;;6229838;22;20014;-84
2022/08/25 23:50:45;;;;;;;49.85;44.67;;;21.90;99.90;;;;;;6255913;22;20023;-84
2022/08/25 23:53:12;;;;;;;51.75;45.95;;;21.90;99.90;;;;;;6254846;22;20403;-84
2022/08/25 23:55:38;;;;;;;48.65;43.67;;;21.90;99.90;;;;;;6281398;22;20045;-83
2022/08/25 23:58:04;;;;;;;48.60;41.88;;;21.80;99.90;;;;;;6230014;22;20015;-83
